sensor_id;sensor_type;location;lat;lon;timestamp;P1;durP1;ratioP1;P2;durP2;ratioP2
2390;SDS011;22957;50.824;4.360;2023-06-26T00:02:25;469.00;;;246.53;;
2390;SDS011;22957;50.824;4.360;2023-06-26T00:04:50;481.10;;;237.53;;
2390;SDS011;22957;50.824;4.360;2023-06-26T00:07:19;508.98;;;391.00;;
2390;SDS011;22957;50.824;4.360;2023-06-26T00:09:45;479.10;;;238.53;;
2390;SDS011;22957;50.824;4.360;2023-06-26T00:12:11;469.07;;;240.87;;
2390;SDS011;22957;50.824;4.360;2023-06-26T00:14:36;564.40;;;425.00;;
2390;SDS011;22957;50.824;4.360;2023-06-26T00:17:02;533.90;;;355.83;;
2390;SDS011;22957;50.824;4.360;2023-06-26T00:19:28;550.50;;;382.65;;
2390;SDS011;22957;50.824;4.360;2023-06-26T00:21:53;518.67;;;338.23;;
2390;SDS011;22957;50.824;4.360;2023-06-26T00:24:19;453.10;;;182.33;;
2390;SDS011;22957;50.824;4.360;2023-06-26T00:26:47;496.45;;;359.45;;
2390;SDS011;22957;50.824;4.360;2023-06-26T00:29:13;460.03;;;226.93;;
2390;SDS011;22957;50.824;4.360;2023-06-26T00:31:39;456.13;;;216.43;;
2390;SDS011;22957;50.824;4.360;2023-06-26T00:34:05;542.10;;;389.27;;
2390;SDS011;22957;50.824;4.360;2023-06-26T00:36:31;515.58;;;369.33;;
2390;SDS011;22957;50.824;4.360;2023-06-26T00:38:57;468.07;;;177.43;;
2390;SDS011;22957;50.824;4.360;2023-06-26T00:41:23;468.23;;;212.87;;
2390;SDS011;22957;50.824;4.360;2023-06-26T00:43:49;509.30;;;314.88;;
2390;SDS011;22957;50.824;4.360;2023-06-26T00:46:14;521.47;;;349.60;;
2390;SDS011;22957;50.824;4.360;2023-06-26T00:48:43;534.80;;;376.23;;
2390;SDS011;22957;50.824;4.360;2023-06-26T00:51:10;546.65;;;397.52;;
2390;SDS011;22957;50.824;4.360;2023-06-26T00:53:36;513.53;;;318.90;;
2390;SDS011;22957;50.824;4.360;2023-06-26T00:56:02;516.20;;;359.43;;
2390;SDS011;22957;50.824;4.360;2023-06-26T00:58:28;464.43;;;211.90;;
2390;SDS011;22957;50.824;4.360;2023-06-26T01:00:54;527.60;;;304.93;;
2390;SDS011;22957;50.824;4.360;2023-06-26T01:03:20;514.90;;;225.17;;
2390;SDS011;22957;50.824;4.360;2023-06-26T01:05:47;538.25;;;349.67;;
2390;SDS011;22957;50.824;4.360;2023-06-26T01:08:14;550.85;;;371.00;;
2390;SDS011;22957;50.824;4.360;2023-06-26T01:10:40;547.08;;;326.15;;
2390;SDS011;22957;50.824;4.360;2023-06-26T01:13:06;569.90;;;387.02;;
2390;SDS011;22957;50.824;4.360;2023-06-26T01:15:32;568.55;;;386.50;;
2390;SDS011;22957;50.824;4.360;2023-06-26T01:17:58;578.92;;;372.73;;
2390;SDS011;22957;50.824;4.360;2023-06-26T01:20:25;555.30;;;370.35;;
2390;SDS011;22957;50.824;4.360;2023-06-26T01:25:44;614.93;;;436.43;;
2390;SDS011;22957;50.824;4.360;2023-06-26T01:28:31;617.65;;;478.35;;
2390;SDS011;22957;50.824;4.360;2023-06-26T01:31:04;624.13;;;485.67;;
2390;SDS011;22957;50.824;4.360;2023-06-26T01:33:31;523.17;;;225.23;;
2390;SDS011;22957;50.824;4.360;2023-06-26T01:35:57;524.97;;;225.80;;
2390;SDS011;22957;50.824;4.360;2023-06-26T01:38:22;529.10;;;215.13;;
2390;SDS011;22957;50.824;4.360;2023-06-26T01:40:48;596.85;;;417.58;;
2390;SDS011;22957;50.824;4.360;2023-06-26T01:43:20;585.70;;;398.00;;
2390;SDS011;22957;50.824;4.360;2023-06-26T01:45:50;529.23;;;221.23;;
2390;SDS011;22957;50.824;4.360;2023-06-26T01:48:20;526.90;;;210.13;;
2390;SDS011;22957;50.824;4.360;2023-06-26T01:50:51;516.03;;;203.17;;
2390;SDS011;22957;50.824;4.360;2023-06-26T01:53:18;520.30;;;207.53;;
2390;SDS011;22957;50.824;4.360;2023-06-26T01:56:05;514.50;;;206.17;;
2390;SDS011;22957;50.824;4.360;2023-06-26T01:58:33;505.50;;;199.90;;
2390;SDS011;22957;50.824;4.360;2023-06-26T02:01:00;528.73;;;217.63;;
2390;SDS011;22957;50.824;4.360;2023-06-26T02:03:26;515.73;;;208.33;;
2390;SDS011;22957;50.824;4.360;2023-06-26T02:05:51;540.03;;;325.33;;
2390;SDS011;22957;50.824;4.360;2023-06-26T02:08:17;524.57;;;325.10;;
2390;SDS011;22957;50.824;4.360;2023-06-26T02:10:42;532.20;;;324.67;;
2390;SDS011;22957;50.824;4.360;2023-06-26T02:13:08;545.58;;;333.45;;
2390;SDS011;22957;50.824;4.360;2023-06-26T02:15:34;550.63;;;341.47;;
2390;SDS011;22957;50.824;4.360;2023-06-26T02:17:59;567.10;;;364.73;;
2390;SDS011;22957;50.824;4.360;2023-06-26T02:20:25;572.10;;;410.00;;
2390;SDS011;22957;50.824;4.360;2023-06-26T02:22:50;544.15;;;332.30;;
2390;SDS011;22957;50.824;4.360;2023-06-26T02:25:17;554.03;;;333.13;;
2390;SDS011;22957;50.824;4.360;2023-06-26T02:27:43;497.70;;;198.97;;
2390;SDS011;22957;50.824;4.360;2023-06-26T02:30:08;468.43;;;169.50;;
2390;SDS011;22957;50.824;4.360;2023-06-26T02:32:34;511.27;;;307.58;;
2390;SDS011;22957;50.824;4.360;2023-06-26T02:35:00;529.07;;;329.10;;
2390;SDS011;22957;50.824;4.360;2023-06-26T02:37:26;528.67;;;327.50;;
2390;SDS011;22957;50.824;4.360;2023-06-26T02:39:52;541.40;;;341.87;;
2390;SDS011;22957;50.824;4.360;2023-06-26T02:42:17;587.70;;;397.60;;
2390;SDS011;22957;50.824;4.360;2023-06-26T02:44:43;541.37;;;340.97;;
2390;SDS011;22957;50.824;4.360;2023-06-26T02:47:08;557.23;;;343.63;;
2390;SDS011;22957;50.824;4.360;2023-06-26T02:49:34;533.85;;;322.05;;
2390;SDS011;22957;50.824;4.360;2023-06-26T02:51:59;530.60;;;324.27;;
2390;SDS011;22957;50.824;4.360;2023-06-26T02:54:25;471.13;;;183.33;;
2390;SDS011;22957;50.824;4.360;2023-06-26T02:56:50;510.70;;;305.98;;
2390;SDS011;22957;50.824;4.360;2023-06-26T02:59:16;507.60;;;295.10;;
2390;SDS011;22957;50.824;4.360;2023-06-26T03:01:42;508.35;;;277.98;;
2390;SDS011;22957;50.824;4.360;2023-06-26T03:04:08;518.63;;;309.30;;
2390;SDS011;22957;50.824;4.360;2023-06-26T03:06:35;448.77;;;153.27;;
2390;SDS011;22957;50.824;4.360;2023-06-26T03:09:00;456.53;;;157.33;;
2390;SDS011;22957;50.824;4.360;2023-06-26T03:11:26;488.60;;;283.65;;
2390;SDS011;22957;50.824;4.360;2023-06-26T03:13:51;521.08;;;322.52;;
2390;SDS011;22957;50.824;4.360;2023-06-26T03:16:17;541.03;;;307.67;;
2390;SDS011;22957;50.824;4.360;2023-06-26T03:18:42;474.20;;;141.93;;
2390;SDS011;22957;50.824;4.360;2023-06-26T03:21:08;530.65;;;301.13;;
2390;SDS011;22957;50.824;4.360;2023-06-26T03:23:34;480.07;;;169.93;;
2390;SDS011;22957;50.824;4.360;2023-06-26T03:25:59;557.73;;;325.43;;
2390;SDS011;22957;50.824;4.360;2023-06-26T03:28:25;552.70;;;312.60;;
2390;SDS011;22957;50.824;4.360;2023-06-26T03:30:50;553.40;;;314.33;;
2390;SDS011;22957;50.824;4.360;2023-06-26T03:33:16;545.53;;;314.37;;
2390;SDS011;22957;50.824;4.360;2023-06-26T03:35:42;494.07;;;169.43;;
2390;SDS011;22957;50.824;4.360;2023-06-26T03:38:07;559.03;;;311.73;;
2390;SDS011;22957;50.824;4.360;2023-06-26T03:40:33;542.22;;;297.20;;
2390;SDS011;22957;50.824;4.360;2023-06-26T03:42:58;536.90;;;284.02;;
2390;SDS011;22957;50.824;4.360;2023-06-26T03:45:24;576.17;;;341.43;;
2390;SDS011;22957;50.824;4.360;2023-06-26T03:47:50;530.07;;;189.23;;
2390;SDS011;22957;50.824;4.360;2023-06-26T03:50:15;581.10;;;350.30;;
2390;SDS011;22957;50.824;4.360;2023-06-26T03:52:41;588.03;;;358.25;;
2390;SDS011;22957;50.824;4.360;2023-06-26T03:55:07;611.60;;;398.70;;
2390;SDS011;22957;50.824;4.360;2023-06-26T03:57:33;596.77;;;370.83;;
2390;SDS011;22957;50.824;4.360;2023-06-26T03:59:59;566.27;;;217.30;;
2390;SDS011;22957;50.824;4.360;2023-06-26T04:02:24;605.67;;;386.90;;
2390;SDS011;22957;50.824;4.360;2023-06-26T04:04:50;605.58;;;393.95;;
2390;SDS011;22957;50.824;4.360;2023-06-26T04:07:17;649.28;;;478.95;;
2390;SDS011;22957;50.824;4.360;2023-06-26T04:09:43;621.67;;;417.75;;
2390;SDS011;22957;50.824;4.360;2023-06-26T04:12:08;636.60;;;465.33;;
2390;SDS011;22957;50.824;4.360;2023-06-26T04:14:34;633.40;;;456.15;;
2390;SDS011;22957;50.824;4.360;2023-06-26T04:16:59;642.97;;;477.73;;
2390;SDS011;22957;50.824;4.360;2023-06-26T04:19:28;634.22;;;461.02;;
2390;SDS011;22957;50.824;4.360;2023-06-26T04:21:54;673.13;;;553.27;;
2390;SDS011;22957;50.824;4.360;2023-06-26T04:24:19;646.40;;;497.60;;
2390;SDS011;22957;50.824;4.360;2023-06-26T04:26:45;636.67;;;457.13;;
2390;SDS011;22957;50.824;4.360;2023-06-26T04:29:10;602.70;;;406.50;;
2390;SDS011;22957;50.824;4.360;2023-06-26T04:31:36;636.67;;;478.52;;
2390;SDS011;22957;50.824;4.360;2023-06-26T04:34:04;649.58;;;503.02;;
2390;SDS011;22957;50.824;4.360;2023-06-26T04:36:29;566.27;;;259.70;;
2390;SDS011;22957;50.824;4.360;2023-06-26T04:38:56;560.03;;;240.33;;
2390;SDS011;22957;50.824;4.360;2023-06-26T04:41:22;544.60;;;188.97;;
2390;SDS011;22957;50.824;4.360;2023-06-26T04:43:47;625.70;;;474.17;;
2390;SDS011;22957;50.824;4.360;2023-06-26T04:46:13;547.23;;;249.50;;
2390;SDS011;22957;50.824;4.360;2023-06-26T04:48:38;653.15;;;513.97;;
2390;SDS011;22957;50.824;4.360;2023-06-26T04:51:04;638.25;;;485.77;;
2390;SDS011;22957;50.824;4.360;2023-06-26T04:53:29;652.90;;;544.97;;
2390;SDS011;22957;50.824;4.360;2023-06-26T04:55:55;560.97;;;273.70;;
2390;SDS011;22957;50.824;4.360;2023-06-26T04:58:21;633.35;;;502.20;;
2390;SDS011;22957;50.824;4.360;2023-06-26T05:00:46;608.72;;;444.42;;
2390;SDS011;22957;50.824;4.360;2023-06-26T05:03:13;614.08;;;455.70;;
2390;SDS011;22957;50.824;4.360;2023-06-26T05:05:39;640.70;;;527.55;;
2390;SDS011;22957;50.824;4.360;2023-06-26T05:08:15;617.90;;;482.30;;
2390;SDS011;22957;50.824;4.360;2023-06-26T05:10:40;628.85;;;524.63;;
2390;SDS011;22957;50.824;4.360;2023-06-26T05:13:06;645.17;;;574.85;;
2390;SDS011;22957;50.824;4.360;2023-06-26T05:15:32;569.73;;;416.57;;
2390;SDS011;22957;50.824;4.360;2023-06-26T05:17:57;594.30;;;514.80;;
2390;SDS011;22957;50.824;4.360;2023-06-26T05:20:23;623.42;;;533.83;;
2390;SDS011;22957;50.824;4.360;2023-06-26T05:22:48;599.50;;;497.63;;
2390;SDS011;22957;50.824;4.360;2023-06-26T05:25:14;507.77;;;297.20;;
2390;SDS011;22957;50.824;4.360;2023-06-26T05:27:41;479.53;;;237.00;;
2390;SDS011;22957;50.824;4.360;2023-06-26T05:30:07;487.83;;;303.20;;
2390;SDS011;22957;50.824;4.360;2023-06-26T05:32:34;485.53;;;305.77;;
2390;SDS011;22957;50.824;4.360;2023-06-26T05:35:01;479.37;;;298.60;;
2390;SDS011;22957;50.824;4.360;2023-06-26T05:37:28;459.87;;;254.70;;
2390;SDS011;22957;50.824;4.360;2023-06-26T05:39:55;492.87;;;321.97;;
2390;SDS011;22957;50.824;4.360;2023-06-26T05:42:21;494.10;;;318.43;;
2390;SDS011;22957;50.824;4.360;2023-06-26T05:44:47;515.43;;;429.83;;
2390;SDS011;22957;50.824;4.360;2023-06-26T05:47:13;532.03;;;436.03;;
2390;SDS011;22957;50.824;4.360;2023-06-26T05:49:38;549.22;;;470.73;;
2390;SDS011;22957;50.824;4.360;2023-06-26T05:52:04;627.60;;;561.40;;
2390;SDS011;22957;50.824;4.360;2023-06-26T05:54:30;563.90;;;440.00;;
2390;SDS011;22957;50.824;4.360;2023-06-26T05:56:56;600.90;;;536.30;;
2390;SDS011;22957;50.824;4.360;2023-06-26T05:59:25;907.13;;;840.88;;
2390;SDS011;22957;50.824;4.360;2023-06-26T06:01:54;465.53;;;298.53;;
2390;SDS011;22957;50.824;4.360;2023-06-26T06:04:20;480.33;;;376.17;;
2390;SDS011;22957;50.824;4.360;2023-06-26T06:06:46;712.23;;;641.47;;
2390;SDS011;22957;50.824;4.360;2023-06-26T06:09:11;1181.88;;;999.90;;
2390;SDS011;22957;50.824;4.360;2023-06-26T06:11:37;1337.77;;;999.90;;
2390;SDS011;22957;50.824;4.360;2023-06-26T06:14:02;1407.53;;;999.90;;
2390;SDS011;22957;50.824;4.360;2023-06-26T06:16:28;1451.73;;;999.90;;
2390;SDS011;22957;50.824;4.360;2023-06-26T06:18:54;1474.70;;;999.90;;
2390;SDS011;22957;50.824;4.360;2023-06-26T06:21:20;1482.00;;;999.90;;
2390;SDS011;22957;50.824;4.360;2023-06-26T06:23:45;1474.90;;;999.90;;
2390;SDS011;22957;50.824;4.360;2023-06-26T06:26:11;1480.60;;;999.90;;
2390;SDS011;22957;50.824;4.360;2023-06-26T06:28:37;1472.83;;;999.90;;
2390;SDS011;22957;50.824;4.360;2023-06-26T06:31:04;1478.67;;;999.90;;
2390;SDS011;22957;50.824;4.360;2023-06-26T06:33:29;1482.37;;;999.90;;
2390;SDS011;22957;50.824;4.360;2023-06-26T06:35:55;1487.40;;;999.90;;
2390;SDS011;22957;50.824;4.360;2023-06-26T06:38:20;1481.87;;;999.90;;
2390;SDS011;22957;50.824;4.360;2023-06-26T06:40:46;1493.70;;;999.90;;
2390;SDS011;22957;50.824;4.360;2023-06-26T06:43:11;1492.10;;;999.90;;
2390;SDS011;22957;50.824;4.360;2023-06-26T06:45:37;1494.53;;;999.90;;
2390;SDS011;22957;50.824;4.360;2023-06-26T06:48:03;1499.90;;;999.90;;
2390;SDS011;22957;50.824;4.360;2023-06-26T06:50:29;1495.70;;;999.90;;
2390;SDS011;22957;50.824;4.360;2023-06-26T06:52:54;1501.53;;;999.90;;
2390;SDS011;22957;50.824;4.360;2023-06-26T06:55:20;1499.77;;;999.90;;
2390;SDS011;22957;50.824;4.360;2023-06-26T06:57:46;1499.50;;;999.90;;
2390;SDS011;22957;50.824;4.360;2023-06-26T07:00:11;1498.30;;;999.90;;
2390;SDS011;22957;50.824;4.360;2023-06-26T07:02:40;1495.90;;;999.90;;
2390;SDS011;22957;50.824;4.360;2023-06-26T07:05:07;1497.13;;;999.90;;
2390;SDS011;22957;50.824;4.360;2023-06-26T07:07:34;1500.70;;;999.90;;
2390;SDS011;22957;50.824;4.360;2023-06-26T07:10:01;1504.73;;;999.90;;
2390;SDS011;22957;50.824;4.360;2023-06-26T07:12:31;1497.10;;;999.90;;
2390;SDS011;22957;50.824;4.360;2023-06-26T07:14:57;1497.83;;;999.90;;
2390;SDS011;22957;50.824;4.360;2023-06-26T07:17:22;1499.10;;;999.90;;
2390;SDS011;22957;50.824;4.360;2023-06-26T07:19:49;1492.73;;;999.90;;
2390;SDS011;22957;50.824;4.360;2023-06-26T07:22:14;1496.23;;;999.90;;
2390;SDS011;22957;50.824;4.360;2023-06-26T07:24:40;1499.73;;;999.90;;
2390;SDS011;22957;50.824;4.360;2023-06-26T07:27:06;1497.33;;;999.90;;
2390;SDS011;22957;50.824;4.360;2023-06-26T07:29:31;1504.97;;;999.90;;
2390;SDS011;22957;50.824;4.360;2023-06-26T07:31:57;1495.43;;;999.90;;
2390;SDS011;22957;50.824;4.360;2023-06-26T07:34:22;1505.23;;;999.90;;
2390;SDS011;22957;50.824;4.360;2023-06-26T07:36:48;1500.73;;;999.90;;
2390;SDS011;22957;50.824;4.360;2023-06-26T07:39:13;1498.97;;;999.90;;
2390;SDS011;22957;50.824;4.360;2023-06-26T07:41:39;1504.10;;;999.90;;
2390;SDS011;22957;50.824;4.360;2023-06-26T07:44:05;1469.03;;;999.90;;
2390;SDS011;22957;50.824;4.360;2023-06-26T07:46:30;1502.87;;;999.90;;
2390;SDS011;22957;50.824;4.360;2023-06-26T07:48:56;1195.47;;;999.90;;
2390;SDS011;22957;50.824;4.360;2023-06-26T07:51:21;1484.30;;;999.90;;
2390;SDS011;22957;50.824;4.360;2023-06-26T07:53:47;1519.13;;;999.90;;
2390;SDS011;22957;50.824;4.360;2023-06-26T07:56:12;1521.73;;;999.90;;
2390;SDS011;22957;50.824;4.360;2023-06-26T07:58:38;1519.67;;;999.90;;
2390;SDS011;22957;50.824;4.360;2023-06-26T08:01:04;1518.83;;;999.90;;
2390;SDS011;22957;50.824;4.360;2023-06-26T08:03:29;1470.47;;;999.90;;
2390;SDS011;22957;50.824;4.360;2023-06-26T08:05:55;1464.23;;;999.90;;
2390;SDS011;22957;50.824;4.360;2023-06-26T08:08:20;1451.80;;;999.90;;
2390;SDS011;22957;50.824;4.360;2023-06-26T08:10:46;1472.97;;;999.90;;
2390;SDS011;22957;50.824;4.360;2023-06-26T08:13:11;1522.67;;;999.90;;
2390;SDS011;22957;50.824;4.360;2023-06-26T08:15:37;1457.70;;;999.90;;
2390;SDS011;22957;50.824;4.360;2023-06-26T08:18:04;1471.27;;;999.90;;
2390;SDS011;22957;50.824;4.360;2023-06-26T08:20:30;1474.10;;;999.90;;
2390;SDS011;22957;50.824;4.360;2023-06-26T08:22:55;1461.50;;;999.90;;
2390;SDS011;22957;50.824;4.360;2023-06-26T08:25:21;1469.63;;;999.90;;
2390;SDS011;22957;50.824;4.360;2023-06-26T08:27:46;1464.17;;;999.90;;
2390;SDS011;22957;50.824;4.360;2023-06-26T08:30:12;1472.97;;;999.90;;
2390;SDS011;22957;50.824;4.360;2023-06-26T08:32:38;1479.50;;;999.90;;
2390;SDS011;22957;50.824;4.360;2023-06-26T08:35:05;1431.93;;;999.90;;
2390;SDS011;22957;50.824;4.360;2023-06-26T08:37:31;1470.13;;;999.90;;
2390;SDS011;22957;50.824;4.360;2023-06-26T08:39:57;1461.50;;;999.90;;
2390;SDS011;22957;50.824;4.360;2023-06-26T08:42:26;1446.33;;;999.90;;
2390;SDS011;22957;50.824;4.360;2023-06-26T08:44:51;1461.67;;;999.90;;
2390;SDS011;22957;50.824;4.360;2023-06-26T08:47:17;1418.00;;;999.90;;
2390;SDS011;22957;50.824;4.360;2023-06-26T08:49:46;1476.87;;;999.90;;
2390;SDS011;22957;50.824;4.360;2023-06-26T08:52:24;1478.90;;;999.90;;
2390;SDS011;22957;50.824;4.360;2023-06-26T08:54:57;1474.27;;;999.90;;
2390;SDS011;22957;50.824;4.360;2023-06-26T08:57:23;1477.00;;;999.90;;
2390;SDS011;22957;50.824;4.360;2023-06-26T08:59:51;1477.20;;;999.90;;
2390;SDS011;22957;50.824;4.360;2023-06-26T09:02:17;1475.57;;;999.90;;
2390;SDS011;22957;50.824;4.360;2023-06-26T09:04:43;1481.03;;;999.90;;
2390;SDS011;22957;50.824;4.360;2023-06-26T09:07:09;1476.80;;;999.90;;
2390;SDS011;22957;50.824;4.360;2023-06-26T09:09:35;1470.57;;;999.90;;
2390;SDS011;22957;50.824;4.360;2023-06-26T09:12:01;1472.67;;;999.90;;
2390;SDS011;22957;50.824;4.360;2023-06-26T09:14:28;1477.27;;;999.90;;
2390;SDS011;22957;50.824;4.360;2023-06-26T09:16:54;1438.43;;;999.90;;
2390;SDS011;22957;50.824;4.360;2023-06-26T09:19:20;1470.87;;;999.90;;
2390;SDS011;22957;50.824;4.360;2023-06-26T09:21:46;1458.57;;;999.90;;
2390;SDS011;22957;50.824;4.360;2023-06-26T09:24:15;1389.10;;;999.90;;
2390;SDS011;22957;50.824;4.360;2023-06-26T09:26:41;1454.17;;;999.90;;
2390;SDS011;22957;50.824;4.360;2023-06-26T09:29:08;1458.63;;;999.90;;
2390;SDS011;22957;50.824;4.360;2023-06-26T09:31:37;1486.70;;;999.90;;
2390;SDS011;22957;50.824;4.360;2023-06-26T09:34:03;1483.67;;;999.90;;
2390;SDS011;22957;50.824;4.360;2023-06-26T09:36:30;1479.00;;;999.90;;
2390;SDS011;22957;50.824;4.360;2023-06-26T09:39:04;1481.47;;;999.90;;
2390;SDS011;22957;50.824;4.360;2023-06-26T09:41:34;1475.00;;;999.90;;
2390;SDS011;22957;50.824;4.360;2023-06-26T09:44:02;1481.77;;;999.90;;
2390;SDS011;22957;50.824;4.360;2023-06-26T09:46:30;1481.53;;;999.90;;
2390;SDS011;22957;50.824;4.360;2023-06-26T09:49:00;1475.67;;;999.90;;
2390;SDS011;22957;50.824;4.360;2023-06-26T09:51:29;1471.57;;;999.90;;
2390;SDS011;22957;50.824;4.360;2023-06-26T09:53:56;1476.03;;;999.90;;
2390;SDS011;22957;50.824;4.360;2023-06-26T09:56:21;1519.00;;;999.90;;
2390;SDS011;22957;50.824;4.360;2023-06-26T09:58:48;1499.53;;;999.90;;
2390;SDS011;22957;50.824;4.360;2023-06-26T10:01:14;1518.27;;;999.90;;
2390;SDS011;22957;50.824;4.360;2023-06-26T10:03:39;1504.63;;;999.90;;
2390;SDS011;22957;50.824;4.360;2023-06-26T10:06:05;1524.43;;;999.90;;
2390;SDS011;22957;50.824;4.360;2023-06-26T10:08:34;1485.27;;;999.90;;
2390;SDS011;22957;50.824;4.360;2023-06-26T10:11:02;1512.80;;;999.90;;
2390;SDS011;22957;50.824;4.360;2023-06-26T10:13:29;1530.37;;;999.90;;
2390;SDS011;22957;50.824;4.360;2023-06-26T10:15:59;1526.87;;;999.90;;
2390;SDS011;22957;50.824;4.360;2023-06-26T10:18:26;1534.13;;;999.90;;
2390;SDS011;22957;50.824;4.360;2023-06-26T10:20:53;1523.40;;;999.90;;
2390;SDS011;22957;50.824;4.360;2023-06-26T10:23:23;1523.53;;;999.90;;
2390;SDS011;22957;50.824;4.360;2023-06-26T10:25:53;1524.27;;;999.90;;
2390;SDS011;22957;50.824;4.360;2023-06-26T10:28:22;1522.77;;;999.90;;
2390;SDS011;22957;50.824;4.360;2023-06-26T10:30:50;1524.47;;;999.90;;
2390;SDS011;22957;50.824;4.360;2023-06-26T10:33:17;1518.07;;;999.90;;
2390;SDS011;22957;50.824;4.360;2023-06-26T10:35:44;1522.33;;;999.90;;
2390;SDS011;22957;50.824;4.360;2023-06-26T10:38:11;1522.73;;;999.90;;
2390;SDS011;22957;50.824;4.360;2023-06-26T10:40:55;1520.17;;;999.90;;
2390;SDS011;22957;50.824;4.360;2023-06-26T10:43:20;1515.40;;;999.90;;
2390;SDS011;22957;50.824;4.360;2023-06-26T10:45:54;1516.37;;;999.90;;
2390;SDS011;22957;50.824;4.360;2023-06-26T10:48:20;1514.23;;;999.90;;
2390;SDS011;22957;50.824;4.360;2023-06-26T10:50:47;1514.73;;;999.90;;
2390;SDS011;22957;50.824;4.360;2023-06-26T10:56:01;1510.03;;;999.90;;
2390;SDS011;22957;50.824;4.360;2023-06-26T10:58:43;1513.43;;;999.90;;
2390;SDS011;22957;50.824;4.360;2023-06-26T11:03:37;1512.60;;;999.90;;
2390;SDS011;22957;50.824;4.360;2023-06-26T11:06:09;1518.80;;;999.90;;
2390;SDS011;22957;50.824;4.360;2023-06-26T11:11:15;1517.20;;;999.90;;
2390;SDS011;22957;50.824;4.360;2023-06-26T11:13:42;1524.17;;;999.90;;
2390;SDS011;22957;50.824;4.360;2023-06-26T11:16:11;1519.40;;;999.90;;
2390;SDS011;22957;50.824;4.360;2023-06-26T11:18:43;1519.50;;;999.90;;
2390;SDS011;22957;50.824;4.360;2023-06-26T11:21:11;1511.30;;;999.90;;
2390;SDS011;22957;50.824;4.360;2023-06-26T11:23:39;1515.70;;;999.90;;
2390;SDS011;22957;50.824;4.360;2023-06-26T11:26:12;1507.57;;;999.90;;
2390;SDS011;22957;50.824;4.360;2023-06-26T11:28:45;1509.70;;;999.90;;
2390;SDS011;22957;50.824;4.360;2023-06-26T11:31:23;1502.13;;;999.90;;
2390;SDS011;22957;50.824;4.360;2023-06-26T11:33:56;1500.40;;;999.90;;
2390;SDS011;22957;50.824;4.360;2023-06-26T11:36:23;1505.57;;;999.90;;
2390;SDS011;22957;50.824;4.360;2023-06-26T11:38:55;1503.80;;;999.90;;
2390;SDS011;22957;50.824;4.360;2023-06-26T11:41:29;1498.40;;;999.90;;
2390;SDS011;22957;50.824;4.360;2023-06-26T11:43:56;1500.77;;;999.90;;
2390;SDS011;22957;50.824;4.360;2023-06-26T11:46:32;1506.23;;;999.90;;
2390;SDS011;22957;50.824;4.360;2023-06-26T11:48:59;1504.20;;;999.90;;
2390;SDS011;22957;50.824;4.360;2023-06-26T11:51:28;1508.37;;;999.90;;
2390;SDS011;22957;50.824;4.360;2023-06-26T11:53:54;1511.23;;;999.90;;
2390;SDS011;22957;50.824;4.360;2023-06-26T11:56:19;1503.00;;;999.90;;
2390;SDS011;22957;50.824;4.360;2023-06-26T11:58:57;1502.73;;;999.90;;
2390;SDS011;22957;50.824;4.360;2023-06-26T12:01:37;1494.87;;;999.90;;
2390;SDS011;22957;50.824;4.360;2023-06-26T12:04:07;1497.60;;;999.90;;
2390;SDS011;22957;50.824;4.360;2023-06-26T12:06:35;1494.93;;;999.90;;
2390;SDS011;22957;50.824;4.360;2023-06-26T12:09:03;1492.10;;;999.90;;
2390;SDS011;22957;50.824;4.360;2023-06-26T12:11:31;1485.60;;;999.90;;
2390;SDS011;22957;50.824;4.360;2023-06-26T12:13:59;1492.60;;;999.90;;
2390;SDS011;22957;50.824;4.360;2023-06-26T12:16:25;1496.40;;;999.90;;
2390;SDS011;22957;50.824;4.360;2023-06-26T12:18:57;1494.87;;;999.90;;
2390;SDS011;22957;50.824;4.360;2023-06-26T12:24:14;1501.27;;;999.90;;
2390;SDS011;22957;50.824;4.360;2023-06-26T12:26:42;1496.47;;;999.90;;
2390;SDS011;22957;50.824;4.360;2023-06-26T12:29:09;1489.87;;;999.90;;
2390;SDS011;22957;50.824;4.360;2023-06-26T12:31:40;1485.80;;;999.90;;
2390;SDS011;22957;50.824;4.360;2023-06-26T12:34:09;1489.13;;;999.90;;
2390;SDS011;22957;50.824;4.360;2023-06-26T12:36:46;1482.07;;;999.90;;
2390;SDS011;22957;50.824;4.360;2023-06-26T12:39:15;1450.80;;;999.90;;
2390;SDS011;22957;50.824;4.360;2023-06-26T12:41:45;1466.90;;;999.90;;
2390;SDS011;22957;50.824;4.360;2023-06-26T12:44:18;1485.47;;;999.90;;
2390;SDS011;22957;50.824;4.360;2023-06-26T12:46:59;1488.60;;;999.90;;
2390;SDS011;22957;50.824;4.360;2023-06-26T12:49:33;1491.60;;;999.90;;
2390;SDS011;22957;50.824;4.360;2023-06-26T12:52:00;1493.60;;;999.90;;
2390;SDS011;22957;50.824;4.360;2023-06-26T12:54:27;1483.40;;;999.90;;
2390;SDS011;22957;50.824;4.360;2023-06-26T12:56:54;1487.37;;;999.90;;
2390;SDS011;22957;50.824;4.360;2023-06-26T12:59:20;1495.60;;;999.90;;
2390;SDS011;22957;50.824;4.360;2023-06-26T13:01:46;1501.83;;;999.90;;
2390;SDS011;22957;50.824;4.360;2023-06-26T13:04:12;1504.17;;;999.90;;
2390;SDS011;22957;50.824;4.360;2023-06-26T13:06:37;1505.87;;;999.90;;
2390;SDS011;22957;50.824;4.360;2023-06-26T13:09:03;1507.33;;;999.90;;
2390;SDS011;22957;50.824;4.360;2023-06-26T13:11:29;1511.00;;;999.90;;
2390;SDS011;22957;50.824;4.360;2023-06-26T13:13:55;1503.43;;;999.90;;
2390;SDS011;22957;50.824;4.360;2023-06-26T13:16:21;1498.37;;;999.90;;
2390;SDS011;22957;50.824;4.360;2023-06-26T13:18:47;1495.13;;;999.90;;
2390;SDS011;22957;50.824;4.360;2023-06-26T13:21:13;1496.40;;;999.90;;
2390;SDS011;22957;50.824;4.360;2023-06-26T13:23:38;1482.00;;;999.90;;
2390;SDS011;22957;50.824;4.360;2023-06-26T13:26:05;1488.27;;;999.90;;
2390;SDS011;22957;50.824;4.360;2023-06-26T13:28:31;1475.67;;;999.90;;
2390;SDS011;22957;50.824;4.360;2023-06-26T13:30:56;1487.53;;;999.90;;
2390;SDS011;22957;50.824;4.360;2023-06-26T13:33:22;1491.90;;;999.90;;
2390;SDS011;22957;50.824;4.360;2023-06-26T13:35:50;1491.10;;;999.90;;
2390;SDS011;22957;50.824;4.360;2023-06-26T13:38:19;1490.87;;;999.90;;
2390;SDS011;22957;50.824;4.360;2023-06-26T13:40:49;1487.60;;;999.90;;
2390;SDS011;22957;50.824;4.360;2023-06-26T13:43:19;1495.20;;;999.90;;
2390;SDS011;22957;50.824;4.360;2023-06-26T13:45:45;1489.27;;;999.90;;
2390;SDS011;22957;50.824;4.360;2023-06-26T13:48:11;1493.07;;;999.90;;
2390;SDS011;22957;50.824;4.360;2023-06-26T13:50:37;1497.87;;;999.90;;
2390;SDS011;22957;50.824;4.360;2023-06-26T13:53:03;1500.57;;;999.90;;
2390;SDS011;22957;50.824;4.360;2023-06-26T13:55:29;1499.57;;;999.90;;
2390;SDS011;22957;50.824;4.360;2023-06-26T13:57:55;1495.33;;;999.90;;
2390;SDS011;22957;50.824;4.360;2023-06-26T14:00:21;1510.73;;;999.90;;
2390;SDS011;22957;50.824;4.360;2023-06-26T14:02:47;1515.47;;;999.90;;
2390;SDS011;22957;50.824;4.360;2023-06-26T14:05:15;1508.13;;;999.90;;
2390;SDS011;22957;50.824;4.360;2023-06-26T14:07:43;1505.40;;;999.90;;
2390;SDS011;22957;50.824;4.360;2023-06-26T14:10:09;1495.37;;;999.90;;
2390;SDS011;22957;50.824;4.360;2023-06-26T14:12:35;1502.27;;;999.90;;
2390;SDS011;22957;50.824;4.360;2023-06-26T14:15:01;1503.47;;;999.90;;